sensor_id;sensor_type;location;lat;lon;timestamp;temperature;humidity
8994;DHT22;4532;50.886;4.700;2023-04-24T00:01:12;12.30;99.90
8994;DHT22;4532;50.886;4.700;2023-04-24T00:03:39;12.30;99.90
8994;DHT22;4532;50.886;4.700;2023-04-24T00:06:07;12.30;99.90
8994;DHT22;4532;50.886;4.700;2023-04-24T00:08:39;12.30;99.90
8994;DHT22;4532;50.886;4.700;2023-04-24T00:11:06;12.30;99.90
8994;DHT22;4532;50.886;4.700;2023-04-24T00:13:34;12.30;99.90
8994;DHT22;4532;50.886;4.700;2023-04-24T00:16:05;12.30;99.90
8994;DHT22;4532;50.886;4.700;2023-04-24T00:18:35;12.30;99.90
8994;DHT22;4532;50.886;4.700;2023-04-24T00:21:04;12.30;99.90
8994;DHT22;4532;50.886;4.700;2023-04-24T00:23:34;12.30;99.90
8994;DHT22;4532;50.886;4.700;2023-04-24T00:26:04;12.30;99.90
8994;DHT22;4532;50.886;4.700;2023-04-24T00:28:33;12.30;99.90
8994;DHT22;4532;50.886;4.700;2023-04-24T00:31:00;12.30;99.90
8994;DHT22;4532;50.886;4.700;2023-04-24T00:33:28;12.30;99.90
8994;DHT22;4532;50.886;4.700;2023-04-24T00:35:57;12.30;99.90
8994;DHT22;4532;50.886;4.700;2023-04-24T00:38:25;12.30;99.90
8994;DHT22;4532;50.886;4.700;2023-04-24T00:40:52;12.30;99.90
8994;DHT22;4532;50.886;4.700;2023-04-24T00:43:23;12.30;99.90
8994;DHT22;4532;50.886;4.700;2023-04-24T00:45:50;12.30;99.90
8994;DHT22;4532;50.886;4.700;2023-04-24T00:48:18;12.30;99.90
8994;DHT22;4532;50.886;4.700;2023-04-24T00:50:52;12.30;99.90
8994;DHT22;4532;50.886;4.700;2023-04-24T00:53:22;12.30;99.90
8994;DHT22;4532;50.886;4.700;2023-04-24T00:55:49;12.30;99.90
8994;DHT22;4532;50.886;4.700;2023-04-24T00:58:22;12.30;99.90
8994;DHT22;4532;50.886;4.700;2023-04-24T01:00:52;12.20;99.90
8994;DHT22;4532;50.886;4.700;2023-04-24T01:03:24;12.20;99.90
8994;DHT22;4532;50.886;4.700;2023-04-24T01:05:54;12.20;99.90
8994;DHT22;4532;50.886;4.700;2023-04-24T01:08:26;12.10;99.90
8994;DHT22;4532;50.886;4.700;2023-04-24T01:11:00;12.10;99.90
8994;DHT22;4532;50.886;4.700;2023-04-24T01:13:33;12.10;99.90
8994;DHT22;4532;50.886;4.700;2023-04-24T01:16:03;12.10;99.90
8994;DHT22;4532;50.886;4.700;2023-04-24T01:18:35;12.10;99.90
8994;DHT22;4532;50.886;4.700;2023-04-24T01:21:08;12.10;99.90
8994;DHT22;4532;50.886;4.700;2023-04-24T01:23:35;12.10;99.90
8994;DHT22;4532;50.886;4.700;2023-04-24T01:26:03;12.10;99.90
8994;DHT22;4532;50.886;4.700;2023-04-24T01:28:30;12.10;99.90
8994;DHT22;4532;50.886;4.700;2023-04-24T01:30:59;12.10;99.90
8994;DHT22;4532;50.886;4.700;2023-04-24T01:33:33;12.10;99.90
8994;DHT22;4532;50.886;4.700;2023-04-24T01:36:00;12.10;99.90
8994;DHT22;4532;50.886;4.700;2023-04-24T01:38:30;12.10;99.90
8994;DHT22;4532;50.886;4.700;2023-04-24T01:40:57;12.00;99.90
8994;DHT22;4532;50.886;4.700;2023-04-24T01:43:27;12.00;99.90
8994;DHT22;4532;50.886;4.700;2023-04-24T01:45:55;12.00;99.90
8994;DHT22;4532;50.886;4.700;2023-04-24T01:48:22;12.00;99.90
8994;DHT22;4532;50.886;4.700;2023-04-24T01:50:49;12.00;99.90
8994;DHT22;4532;50.886;4.700;2023-04-24T01:53:19;12.00;99.90
8994;DHT22;4532;50.886;4.700;2023-04-24T01:55:48;12.00;99.90
8994;DHT22;4532;50.886;4.700;2023-04-24T01:58:15;12.00;99.90
8994;DHT22;4532;50.886;4.700;2023-04-24T02:00:43;11.90;99.90
8994;DHT22;4532;50.886;4.700;2023-04-24T02:03:15;11.90;99.90
8994;DHT22;4532;50.886;4.700;2023-04-24T02:05:44;11.90;99.90
8994;DHT22;4532;50.886;4.700;2023-04-24T02:08:14;11.90;99.90
8994;DHT22;4532;50.886;4.700;2023-04-24T02:10:41;11.90;99.90
8994;DHT22;4532;50.886;4.700;2023-04-24T02:13:11;11.90;99.90
8994;DHT22;4532;50.886;4.700;2023-04-24T02:15:44;11.90;99.90
8994;DHT22;4532;50.886;4.700;2023-04-24T02:18:14;11.80;99.90
8994;DHT22;4532;50.886;4.700;2023-04-24T02:20:42;11.80;99.90
8994;DHT22;4532;50.886;4.700;2023-04-24T02:23:09;11.80;99.90
8994;DHT22;4532;50.886;4.700;2023-04-24T02:25:39;11.80;99.90
8994;DHT22;4532;50.886;4.700;2023-04-24T02:28:08;11.80;99.90
8994;DHT22;4532;50.886;4.700;2023-04-24T02:30:38;11.80;99.90
8994;DHT22;4532;50.886;4.700;2023-04-24T02:33:05;11.80;99.90
8994;DHT22;4532;50.886;4.700;2023-04-24T02:35:34;11.80;99.90
8994;DHT22;4532;50.886;4.700;2023-04-24T02:38:06;11.80;99.90
8994;DHT22;4532;50.886;4.700;2023-04-24T02:40:33;11.80;99.90
8994;DHT22;4532;50.886;4.700;2023-04-24T02:43:03;11.70;99.90
8994;DHT22;4532;50.886;4.700;2023-04-24T02:45:33;11.70;99.90
8994;DHT22;4532;50.886;4.700;2023-04-24T02:48:06;11.70;99.90
8994;DHT22;4532;50.886;4.700;2023-04-24T02:50:35;11.70;99.90
8994;DHT22;4532;50.886;4.700;2023-04-24T02:53:05;11.70;99.90
8994;DHT22;4532;50.886;4.700;2023-04-24T02:55:32;11.70;99.90
8994;DHT22;4532;50.886;4.700;2023-04-24T02:58:02;11.70;99.90
8994;DHT22;4532;50.886;4.700;2023-04-24T03:00:32;11.70;99.90
8994;DHT22;4532;50.886;4.700;2023-04-24T03:03:04;11.60;99.90
8994;DHT22;4532;50.886;4.700;2023-04-24T03:05:32;11.60;99.90
8994;DHT22;4532;50.886;4.700;2023-04-24T03:08:02;11.60;99.90
8994;DHT22;4532;50.886;4.700;2023-04-24T03:10:29;11.60;99.90
8994;DHT22;4532;50.886;4.700;2023-04-24T03:12:56;11.60;99.90
8994;DHT22;4532;50.886;4.700;2023-04-24T03:15:26;11.60;99.90
8994;DHT22;4532;50.886;4.700;2023-04-24T03:17:56;11.60;99.90
8994;DHT22;4532;50.886;4.700;2023-04-24T03:20:25;11.60;99.90
8994;DHT22;4532;50.886;4.700;2023-04-24T03:22:55;11.60;99.90
8994;DHT22;4532;50.886;4.700;2023-04-24T03:25:23;11.60;99.90
8994;DHT22;4532;50.886;4.700;2023-04-24T03:27:53;11.50;99.90
8994;DHT22;4532;50.886;4.700;2023-04-24T03:30:21;11.50;99.90
8994;DHT22;4532;50.886;4.700;2023-04-24T03:32:53;11.50;99.90
8994;DHT22;4532;50.886;4.700;2023-04-24T03:35:22;11.50;99.90
8994;DHT22;4532;50.886;4.700;2023-04-24T03:37:52;11.50;99.90
8994;DHT22;4532;50.886;4.700;2023-04-24T03:40:19;11.50;99.90
8994;DHT22;4532;50.886;4.700;2023-04-24T03:42:48;11.40;99.90
8994;DHT22;4532;50.886;4.700;2023-04-24T03:45:18;11.40;99.90
8994;DHT22;4532;50.886;4.700;2023-04-24T03:47:47;11.40;99.90
8994;DHT22;4532;50.886;4.700;2023-04-24T03:50:14;11.40;99.90
8994;DHT22;4532;50.886;4.700;2023-04-24T03:52:44;11.40;99.90
8994;DHT22;4532;50.886;4.700;2023-04-24T03:55:13;11.40;99.90
8994;DHT22;4532;50.886;4.700;2023-04-24T03:57:41;11.40;99.90
8994;DHT22;4532;50.886;4.700;2023-04-24T04:00:09;11.40;99.90
8994;DHT22;4532;50.886;4.700;2023-04-24T04:02:36;11.40;99.90
8994;DHT22;4532;50.886;4.700;2023-04-24T04:05:09;11.40;99.90
8994;DHT22;4532;50.886;4.700;2023-04-24T04:07:40;11.40;99.90
8994;DHT22;4532;50.886;4.700;2023-04-24T04:10:12;11.40;99.90
8994;DHT22;4532;50.886;4.700;2023-04-24T04:12:42;11.40;99.90
8994;DHT22;4532;50.886;4.700;2023-04-24T04:15:11;11.40;99.90
8994;DHT22;4532;50.886;4.700;2023-04-24T04:17:40;11.40;99.90
8994;DHT22;4532;50.886;4.700;2023-04-24T04:20:08;11.40;99.90
8994;DHT22;4532;50.886;4.700;2023-04-24T04:22:37;11.40;99.90
8994;DHT22;4532;50.886;4.700;2023-04-24T04:25:06;11.40;99.90
8994;DHT22;4532;50.886;4.700;2023-04-24T04:27:35;11.40;99.90
8994;DHT22;4532;50.886;4.700;2023-04-24T04:30:03;11.40;99.90
8994;DHT22;4532;50.886;4.700;2023-04-24T04:32:38;11.40;99.90
8994;DHT22;4532;50.886;4.700;2023-04-24T04:35:08;11.40;99.90
8994;DHT22;4532;50.886;4.700;2023-04-24T04:37:38;11.40;99.90
8994;DHT22;4532;50.886;4.700;2023-04-24T04:40:09;11.40;99.90
8994;DHT22;4532;50.886;4.700;2023-04-24T04:42:40;11.40;99.90
8994;DHT22;4532;50.886;4.700;2023-04-24T04:45:10;11.40;99.90
8994;DHT22;4532;50.886;4.700;2023-04-24T04:47:40;11.40;99.90
8994;DHT22;4532;50.886;4.700;2023-04-24T04:50:10;11.40;99.90
8994;DHT22;4532;50.886;4.700;2023-04-24T04:52:40;11.40;99.90
8994;DHT22;4532;50.886;4.700;2023-04-24T04:55:12;11.30;99.90
8994;DHT22;4532;50.886;4.700;2023-04-24T04:57:40;11.30;99.90
8994;DHT22;4532;50.886;4.700;2023-04-24T05:00:10;11.30;99.90
8994;DHT22;4532;50.886;4.700;2023-04-24T05:02:40;11.30;99.90
8994;DHT22;4532;50.886;4.700;2023-04-24T05:05:08;11.30;99.90
8994;DHT22;4532;50.886;4.700;2023-04-24T05:07:40;11.20;99.90
8994;DHT22;4532;50.886;4.700;2023-04-24T05:10:11;11.20;99.90
8994;DHT22;4532;50.886;4.700;2023-04-24T05:12:38;11.20;99.90
8994;DHT22;4532;50.886;4.700;2023-04-24T05:15:06;11.20;99.90
8994;DHT22;4532;50.886;4.700;2023-04-24T05:17:40;11.20;99.90
8994;DHT22;4532;50.886;4.700;2023-04-24T05:20:13;11.10;99.90
8994;DHT22;4532;50.886;4.700;2023-04-24T05:22:42;11.10;99.90
8994;DHT22;4532;50.886;4.700;2023-04-24T05:25:09;11.10;99.90
8994;DHT22;4532;50.886;4.700;2023-04-24T05:27:42;11.10;99.90
8994;DHT22;4532;50.886;4.700;2023-04-24T05:30:09;11.10;99.90
8994;DHT22;4532;50.886;4.700;2023-04-24T05:32:39;11.10;99.90
8994;DHT22;4532;50.886;4.700;2023-04-24T05:35:07;11.10;99.90
8994;DHT22;4532;50.886;4.700;2023-04-24T05:37:34;11.10;99.90
8994;DHT22;4532;50.886;4.700;2023-04-24T05:40:01;11.10;99.90
8994;DHT22;4532;50.886;4.700;2023-04-24T05:42:31;11.00;99.90
8994;DHT22;4532;50.886;4.700;2023-04-24T05:44:59;11.00;99.90
8994;DHT22;4532;50.886;4.700;2023-04-24T05:47:26;11.00;99.90
8994;DHT22;4532;50.886;4.700;2023-04-24T05:49:55;11.00;99.90
8994;DHT22;4532;50.886;4.700;2023-04-24T05:52:22;11.00;99.90
8994;DHT22;4532;50.886;4.700;2023-04-24T05:54:52;11.00;99.90
8994;DHT22;4532;50.886;4.700;2023-04-24T05:57:19;11.00;99.90
8994;DHT22;4532;50.886;4.700;2023-04-24T05:59:47;11.00;99.90
8994;DHT22;4532;50.886;4.700;2023-04-24T06:02:14;11.00;99.90
8994;DHT22;4532;50.886;4.700;2023-04-24T06:04:41;10.90;99.90
8994;DHT22;4532;50.886;4.700;2023-04-24T06:07:12;11.00;99.90
8994;DHT22;4532;50.886;4.700;2023-04-24T06:09:42;11.00;99.90
8994;DHT22;4532;50.886;4.700;2023-04-24T06:12:09;11.00;99.90
8994;DHT22;4532;50.886;4.700;2023-04-24T06:14:39;10.90;99.90
8994;DHT22;4532;50.886;4.700;2023-04-24T06:17:06;10.90;99.90
8994;DHT22;4532;50.886;4.700;2023-04-24T06:19:38;10.90;99.90
8994;DHT22;4532;50.886;4.700;2023-04-24T06:22:08;10.90;99.90
8994;DHT22;4532;50.886;4.700;2023-04-24T06:24:39;11.00;99.90
8994;DHT22;4532;50.886;4.700;2023-04-24T06:27:06;11.00;99.90
8994;DHT22;4532;50.886;4.700;2023-04-24T06:29:35;10.90;99.90
8994;DHT22;4532;50.886;4.700;2023-04-24T06:32:02;10.90;99.90
8994;DHT22;4532;50.886;4.700;2023-04-24T06:34:33;11.00;99.90
8994;DHT22;4532;50.886;4.700;2023-04-24T06:37:05;11.00;99.90
8994;DHT22;4532;50.886;4.700;2023-04-24T06:39:33;11.00;99.90
8994;DHT22;4532;50.886;4.700;2023-04-24T06:42:02;10.90;99.90
8994;DHT22;4532;50.886;4.700;2023-04-24T06:44:30;10.90;99.90
8994;DHT22;4532;50.886;4.700;2023-04-24T06:46:59;10.90;99.90
8994;DHT22;4532;50.886;4.700;2023-04-24T06:49:26;10.90;99.90
8994;DHT22;4532;50.886;4.700;2023-04-24T06:51:53;10.90;99.90
8994;DHT22;4532;50.886;4.700;2023-04-24T06:54:23;10.90;99.90
8994;DHT22;4532;50.886;4.700;2023-04-24T06:56:53;10.90;99.90
8994;DHT22;4532;50.886;4.700;2023-04-24T06:59:21;10.90;99.90
8994;DHT22;4532;50.886;4.700;2023-04-24T07:01:51;10.90;99.90
8994;DHT22;4532;50.886;4.700;2023-04-24T07:04:21;10.90;99.90
8994;DHT22;4532;50.886;4.700;2023-04-24T07:06:49;10.90;99.90
8994;DHT22;4532;50.886;4.700;2023-04-24T07:09:25;10.90;99.90
8994;DHT22;4532;50.886;4.700;2023-04-24T07:11:55;10.90;99.90
8994;DHT22;4532;50.886;4.700;2023-04-24T07:14:28;10.90;99.90
8994;DHT22;4532;50.886;4.700;2023-04-24T07:16:55;10.90;99.90
8994;DHT22;4532;50.886;4.700;2023-04-24T07:19:30;10.90;99.90
8994;DHT22;4532;50.886;4.700;2023-04-24T07:22:00;10.90;99.90
8994;DHT22;4532;50.886;4.700;2023-04-24T07:24:27;10.90;99.90
8994;DHT22;4532;50.886;4.700;2023-04-24T07:26:58;10.90;99.90
8994;DHT22;4532;50.886;4.700;2023-04-24T07:29:30;10.90;99.90
8994;DHT22;4532;50.886;4.700;2023-04-24T07:31:59;10.90;99.90
8994;DHT22;4532;50.886;4.700;2023-04-24T07:34:30;10.90;99.90
8994;DHT22;4532;50.886;4.700;2023-04-24T07:36:57;10.90;99.90
8994;DHT22;4532;50.886;4.700;2023-04-24T07:39:24;10.90;99.90
8994;DHT22;4532;50.886;4.700;2023-04-24T07:41:56;11.00;99.90
8994;DHT22;4532;50.886;4.700;2023-04-24T07:44:26;10.90;99.90
8994;DHT22;4532;50.886;4.700;2023-04-24T07:46:56;11.00;99.90
8994;DHT22;4532;50.886;4.700;2023-04-24T07:49:23;11.00;99.90
8994;DHT22;4532;50.886;4.700;2023-04-24T07:51:54;11.00;99.90
8994;DHT22;4532;50.886;4.700;2023-04-24T07:54:24;11.00;99.90
8994;DHT22;4532;50.886;4.700;2023-04-24T07:56:56;11.00;99.90
8994;DHT22;4532;50.886;4.700;2023-04-24T07:59:27;11.00;99.90
8994;DHT22;4532;50.886;4.700;2023-04-24T08:01:54;11.10;99.90
8994;DHT22;4532;50.886;4.700;2023-04-24T08:04:22;11.10;99.90
8994;DHT22;4532;50.886;4.700;2023-04-24T08:06:52;11.10;99.90
8994;DHT22;4532;50.886;4.700;2023-04-24T08:09:24;11.10;99.90
8994;DHT22;4532;50.886;4.700;2023-04-24T08:11:53;11.10;99.90
8994;DHT22;4532;50.886;4.700;2023-04-24T08:14:20;11.10;99.90
8994;DHT22;4532;50.886;4.700;2023-04-24T08:16:48;11.20;99.90
8994;DHT22;4532;50.886;4.700;2023-04-24T08:19:16;11.30;99.90
8994;DHT22;4532;50.886;4.700;2023-04-24T08:21:48;11.30;99.90
8994;DHT22;4532;50.886;4.700;2023-04-24T08:24:16;11.30;99.90
8994;DHT22;4532;50.886;4.700;2023-04-24T08:26:43;11.40;99.90
8994;DHT22;4532;50.886;4.700;2023-04-24T08:29:11;11.40;99.90
8994;DHT22;4532;50.886;4.700;2023-04-24T08:31:38;11.50;99.90
8994;DHT22;4532;50.886;4.700;2023-04-24T08:34:05;11.50;99.90
8994;DHT22;4532;50.886;4.700;2023-04-24T08:36:35;11.50;99.90
8994;DHT22;4532;50.886;4.700;2023-04-24T08:39:17;11.50;99.90
8994;DHT22;4532;50.886;4.700;2023-04-24T08:41:50;11.50;99.90
8994;DHT22;4532;50.886;4.700;2023-04-24T08:44:23;11.50;99.90
8994;DHT22;4532;50.886;4.700;2023-04-24T08:46:52;11.50;99.90
8994;DHT22;4532;50.886;4.700;2023-04-24T08:49:24;11.50;99.90
8994;DHT22;4532;50.886;4.700;2023-04-24T08:51:53;11.60;99.90
8994;DHT22;4532;50.886;4.700;2023-04-24T08:54:24;11.60;99.90
8994;DHT22;4532;50.886;4.700;2023-04-24T08:57:00;11.70;99.90
8994;DHT22;4532;50.886;4.700;2023-04-24T08:59:31;11.70;99.90
8994;DHT22;4532;50.886;4.700;2023-04-24T09:01:59;11.70;99.90
8994;DHT22;4532;50.886;4.700;2023-04-24T09:04:29;11.80;99.90
8994;DHT22;4532;50.886;4.700;2023-04-24T09:07:02;11.80;99.90
8994;DHT22;4532;50.886;4.700;2023-04-24T09:09:32;11.80;99.90
8994;DHT22;4532;50.886;4.700;2023-04-24T09:12:00;11.80;99.90
8994;DHT22;4532;50.886;4.700;2023-04-24T09:14:31;11.80;99.90
8994;DHT22;4532;50.886;4.700;2023-04-24T09:16:59;11.80;99.90
8994;DHT22;4532;50.886;4.700;2023-04-24T09:19:26;11.80;99.90
8994;DHT22;4532;50.886;4.700;2023-04-24T09:21:53;11.80;99.90
8994;DHT22;4532;50.886;4.700;2023-04-24T09:24:23;11.80;99.90
8994;DHT22;4532;50.886;4.700;2023-04-24T09:27:00;11.80;99.90
8994;DHT22;4532;50.886;4.700;2023-04-24T09:29:33;11.80;99.90
8994;DHT22;4532;50.886;4.700;2023-04-24T09:32:18;11.80;99.90
8994;DHT22;4532;50.886;4.700;2023-04-24T09:35:11;11.70;99.90
8994;DHT22;4532;50.886;4.700;2023-04-24T09:37:43;11.70;99.90
8994;DHT22;4532;50.886;4.700;2023-04-24T09:40:18;11.70;99.90
8994;DHT22;4532;50.886;4.700;2023-04-24T09:42:54;11.70;99.90
8994;DHT22;4532;50.886;4.700;2023-04-24T09:45:31;11.60;99.90
8994;DHT22;4532;50.886;4.700;2023-04-24T09:48:04;11.70;99.90
8994;DHT22;4532;50.886;4.700;2023-04-24T09:50:37;11.70;99.90
8994;DHT22;4532;50.886;4.700;2023-04-24T09:53:07;11.80;99.90
8994;DHT22;4532;50.886;4.700;2023-04-24T09:55:45;11.80;99.90
8994;DHT22;4532;50.886;4.700;2023-04-24T09:58:15;11.80;99.90
8994;DHT22;4532;50.886;4.700;2023-04-24T10:00:42;11.80;99.90
8994;DHT22;4532;50.886;4.700;2023-04-24T10:03:14;11.90;99.90
8994;DHT22;4532;50.886;4.700;2023-04-24T10:05:46;11.90;99.90
8994;DHT22;4532;50.886;4.700;2023-04-24T10:08:16;12.00;99.90
8994;DHT22;4532;50.886;4.700;2023-04-24T10:10:44;12.00;99.90
8994;DHT22;4532;50.886;4.700;2023-04-24T10:13:17;12.00;99.90
8994;DHT22;4532;50.886;4.700;2023-04-24T10:15:52;12.00;99.90
8994;DHT22;4532;50.886;4.700;2023-04-24T10:18:23;12.10;99.90
8994;DHT22;4532;50.886;4.700;2023-04-24T10:20:54;12.10;99.90
8994;DHT22;4532;50.886;4.700;2023-04-24T10:23:25;12.10;99.90
8994;DHT22;4532;50.886;4.700;2023-04-24T10:25:55;12.00;99.90
8994;DHT22;4532;50.886;4.700;2023-04-24T10:28:22;12.00;99.90
8994;DHT22;4532;50.886;4.700;2023-04-24T10:30:56;12.10;99.90
8994;DHT22;4532;50.886;4.700;2023-04-24T10:33:26;12.10;99.90
8994;DHT22;4532;50.886;4.700;2023-04-24T10:35:56;12.10;99.90
8994;DHT22;4532;50.886;4.700;2023-04-24T10:38:26;12.10;99.90
8994;DHT22;4532;50.886;4.700;2023-04-24T10:41:11;12.10;99.90
8994;DHT22;4532;50.886;4.700;2023-04-24T10:43:46;12.10;99.90
8994;DHT22;4532;50.886;4.700;2023-04-24T10:46:20;12.20;99.90
8994;DHT22;4532;50.886;4.700;2023-04-24T10:48:55;12.10;99.90
8994;DHT22;4532;50.886;4.700;2023-04-24T10:51:23;12.20;99.90
8994;DHT22;4532;50.886;4.700;2023-04-24T10:53:53;12.30;99.90
8994;DHT22;4532;50.886;4.700;2023-04-24T10:56:26;12.30;99.90
8994;DHT22;4532;50.886;4.700;2023-04-24T10:58:58;12.30;99.90
8994;DHT22;4532;50.886;4.700;2023-04-24T11:01:28;12.30;99.90
8994;DHT22;4532;50.886;4.700;2023-04-24T11:04:00;12.30;99.90
8994;DHT22;4532;50.886;4.700;2023-04-24T11:06:35;12.30;99.90
8994;DHT22;4532;50.886;4.700;2023-04-24T11:09:10;12.30;99.90
8994;DHT22;4532;50.886;4.700;2023-04-24T11:11:45;12.30;99.90
8994;DHT22;4532;50.886;4.700;2023-04-24T11:14:18;12.30;99.90
8994;DHT22;4532;50.886;4.700;2023-04-24T11:16:54;12.30;99.90
8994;DHT22;4532;50.886;4.700;2023-04-24T11:19:25;12.20;99.90
8994;DHT22;4532;50.886;4.700;2023-04-24T11:27:19;12.40;99.90
8994;DHT22;4532;50.886;4.700;2023-04-24T11:37:36;12.50;99.90
8994;DHT22;4532;50.886;4.700;2023-04-24T11:40:11;12.50;99.90
8994;DHT22;4532;50.886;4.700;2023-04-24T11:42:46;12.50;99.90
8994;DHT22;4532;50.886;4.700;2023-04-24T11:45:31;12.50;99.90
8994;DHT22;4532;50.886;4.700;2023-04-24T11:47:59;12.40;99.90
8994;DHT22;4532;50.886;4.700;2023-04-24T11:50:27;12.50;99.90
8994;DHT22;4532;50.886;4.700;2023-04-24T11:52:55;12.50;99.90
8994;DHT22;4532;50.886;4.700;2023-04-24T11:57:53;12.50;99.90
8994;DHT22;4532;50.886;4.700;2023-04-24T12:00:24;12.50;99.90
8994;DHT22;4532;50.886;4.700;2023-04-24T12:03:04;12.60;99.90
8994;DHT22;4532;50.886;4.700;2023-04-24T12:05:33;12.50;99.90
8994;DHT22;4532;50.886;4.700;2023-04-24T12:08:02;12.60;99.90
8994;DHT22;4532;50.886;4.700;2023-04-24T12:10:30;12.60;99.90
8994;DHT22;4532;50.886;4.700;2023-04-24T12:13:00;12.70;99.90
8994;DHT22;4532;50.886;4.700;2023-04-24T12:15:30;12.70;99.90
8994;DHT22;4532;50.886;4.700;2023-04-24T12:18:00;12.70;99.90
8994;DHT22;4532;50.886;4.700;2023-04-24T12:20:31;12.70;99.90
8994;DHT22;4532;50.886;4.700;2023-04-24T12:23:06;12.80;99.90
8994;DHT22;4532;50.886;4.700;2023-04-24T12:25:36;12.80;99.90
8994;DHT22;4532;50.886;4.700;2023-04-24T12:30:32;12.80;99.90
8994;DHT22;4532;50.886;4.700;2023-04-24T12:33:09;12.90;99.90
8994;DHT22;4532;50.886;4.700;2023-04-24T12:35:36;12.90;99.90
8994;DHT22;4532;50.886;4.700;2023-04-24T12:38:11;12.90;99.90
8994;DHT22;4532;50.886;4.700;2023-04-24T12:40:41;12.90;99.90
8994;DHT22;4532;50.886;4.700;2023-04-24T12:43:19;12.90;99.90
8994;DHT22;4532;50.886;4.700;2023-04-24T12:45:47;13.00;99.90
8994;DHT22;4532;50.886;4.700;2023-04-24T12:48:17;13.10;99.90
8994;DHT22;4532;50.886;4.700;2023-04-24T12:50:44;13.10;99.90
8994;DHT22;4532;50.886;4.700;2023-04-24T12:53:14;13.20;99.90
8994;DHT22;4532;50.886;4.700;2023-04-24T12:55:42;13.10;99.90
8994;DHT22;4532;50.886;4.700;2023-04-24T12:58:14;13.20;99.90
8994;DHT22;4532;50.886;4.700;2023-04-24T13:00:41;13.30;99.90
8994;DHT22;4532;50.886;4.700;2023-04-24T13:03:13;13.30;99.90
8994;DHT22;4532;50.886;4.700;2023-04-24T13:05:43;13.30;99.90
8994;DHT22;4532;50.886;4.700;2023-04-24T13:08:10;13.30;99.90
8994;DHT22;4532;50.886;4.700;2023-04-24T13:10:40;13.40;99.90
8994;DHT22;4532;50.886;4.700;2023-04-24T13:13:08;13.50;99.90
8994;DHT22;4532;50.886;4.700;2023-04-24T13:15:37;13.60;99.90
8994;DHT22;4532;50.886;4.700;2023-04-24T13:18:09;13.50;99.90
8994;DHT22;4532;50.886;4.700;2023-04-24T13:20:43;13.50;99.90
8994;DHT22;4532;50.886;4.700;2023-04-24T13:23:13;13.50;99.90
8994;DHT22;4532;50.886;4.700;2023-04-24T13:25:43;13.60;99.90
8994;DHT22;4532;50.886;4.700;2023-04-24T13:28:10;13.60;99.90
8994;DHT22;4532;50.886;4.700;2023-04-24T13:30:44;13.60;99.90
8994;DHT22;4532;50.886;4.700;2023-04-24T13:33:11;13.50;99.90
8994;DHT22;4532;50.886;4.700;2023-04-24T13:35:39;13.40;99.90
8994;DHT22;4532;50.886;4.700;2023-04-24T13:38:11;13.40;99.90
8994;DHT22;4532;50.886;4.700;2023-04-24T13:40:38;13.50;99.90
8994;DHT22;4532;50.886;4.700;2023-04-24T13:43:07;13.50;99.90
8994;DHT22;4532;50.886;4.700;2023-04-24T13:45:37;13.50;99.90
8994;DHT22;4532;50.886;4.700;2023-04-24T13:48:04;13.60;99.90
8994;DHT22;4532;50.886;4.700;2023-04-24T13:50:32;13.60;99.90
8994;DHT22;4532;50.886;4.700;2023-04-24T13:53:04;13.70;99.90
8994;DHT22;4532;50.886;4.700;2023-04-24T13:55:33;13.70;99.90
8994;DHT22;4532;50.886;4.700;2023-04-24T13:58:05;13.70;99.90
8994;DHT22;4532;50.886;4.700;2023-04-24T14:00:33;13.70;99.90
8994;DHT22;4532;50.886;4.700;2023-04-24T14:03:03;13.80;99.90
8994;DHT22;4532;50.886;4.700;2023-04-24T14:05:33;13.80;99.90
8994;DHT22;4532;50.886;4.700;2023-04-24T14:08:07;13.80;99.90
8994;DHT22;4532;50.886;4.700;2023-04-24T14:10:36;13.70;99.90
8994;DHT22;4532;50.886;4.700;2023-04-24T14:13:04;13.80;99.90
8994;DHT22;4532;50.886;4.700;2023-04-24T14:15:35;13.80;99.90
8994;DHT22;4532;50.886;4.700;2023-04-24T14:18:07;13.80;99.90
8994;DHT22;4532;50.886;4.700;2023-04-24T14:20:39;13.80;99.90
8994;DHT22;4532;50.886;4.700;2023-04-24T14:23:06;13.80;99.90
8994;DHT22;4532;50.886;4.700;2023-04-24T14:25:38;13.80;99.90
8994;DHT22;4532;50.886;4.700;2023-04-24T14:28:08;13.80;99.90
8994;DHT22;4532;50.886;4.700;2023-04-24T14:30:40;13.90;99.90
8994;DHT22;4532;50.886;4.700;2023-04-24T14:33:10;13.90;99.90
8994;DHT22;4532;50.886;4.700;2023-04-24T14:35:42;13.90;99.90
8994;DHT22;4532;50.886;4.700;2023-04-24T14:38:10;13.90;99.90
8994;DHT22;4532;50.886;4.700;2023-04-24T14:40:37;13.90;99.90
8994;DHT22;4532;50.886;4.700;2023-04-24T14:43:26;13.90;99.90
8994;DHT22;4532;50.886;4.700;2023-04-24T14:45:56;13.90;99.90
8994;DHT22;4532;50.886;4.700;2023-04-24T14:48:30;13.80;99.90
8994;DHT22;4532;50.886;4.700;2023-04-24T14:51:00;13.90;99.90
8994;DHT22;4532;50.886;4.700;2023-04-24T14:53:29;13.90;99.90
8994;DHT22;4532;50.886;4.700;2023-04-24T14:55:57;13.90;99.90
8994;DHT22;4532;50.886;4.700;2023-04-24T14:58:29;13.80;99.90
8994;DHT22;4532;50.886;4.700;2023-04-24T15:00:56;13.80;99.90
8994;DHT22;4532;50.886;4.700;2023-04-24T15:03:26;13.80;99.90
8994;DHT22;4532;50.886;4.700;2023-04-24T15:05:59;13.70;99.90
8994;DHT22;4532;50.886;4.700;2023-04-24T15:08:28;13.70;99.90
8994;DHT22;4532;50.886;4.700;2023-04-24T15:10:58;13.70;99.90
8994;DHT22;4532;50.886;4.700;2023-04-24T15:13:29;13.70;99.90
8994;DHT22;4532;50.886;4.700;2023-04-24T15:16:01;13.70;99.90
8994;DHT22;4532;50.886;4.700;2023-04-24T15:18:29;13.60;99.90
8994;DHT22;4532;50.886;4.700;2023-04-24T15:20:58;13.60;99.90
8994;DHT22;4532;50.886;4.700;2023-04-24T15:23:30;13.60;99.90
8994;DHT22;4532;50.886;4.700;2023-04-24T15:26:00;13.70;99.90
8994;DHT22;4532;50.886;4.700;2023-04-24T15:28:28;13.70;99.90
8994;DHT22;4532;50.886;4.700;2023-04-24T15:30:55;13.70;99.90
8994;DHT22;4532;50.886;4.700;2023-04-24T15:33:23;13.70;99.90
8994;DHT22;4532;50.886;4.700;2023-04-24T15:35:50;13.70;99.90
8994;DHT22;4532;50.886;4.700;2023-04-24T15:38:17;13.70;99.90
8994;DHT22;4532;50.886;4.700;2023-04-24T15:40:49;13.60;99.90
8994;DHT22;4532;50.886;4.700;2023-04-24T15:43:19;13.60;99.90
8994;DHT22;4532;50.886;4.700;2023-04-24T15:45:53;13.60;99.90
8994;DHT22;4532;50.886;4.700;2023-04-24T15:48:23;13.60;99.90
8994;DHT22;4532;50.886;4.700;2023-04-24T15:50:52;13.50;99.90
8994;DHT22;4532;50.886;4.700;2023-04-24T15:53:22;13.50;99.90
8994;DHT22;4532;50.886;4.700;2023-04-24T15:55:54;13.50;99.90
8994;DHT22;4532;50.886;4.700;2023-04-24T15:58:26;13.50;99.90
8994;DHT22;4532;50.886;4.700;2023-04-24T16:00:55;13.50;99.90
8994;DHT22;4532;50.886;4.700;2023-04-24T16:03:25;13.50;99.90
8994;DHT22;4532;50.886;4.700;2023-04-24T16:05:57;13.40;99.90
8994;DHT22;4532;50.886;4.700;2023-04-24T16:08:26;13.40;99.90
8994;DHT22;4532;50.886;4.700;2023-04-24T16:10:57;13.40;99.90
8994;DHT22;4532;50.886;4.700;2023-04-24T16:13:27;13.40;99.90
8994;DHT22;4532;50.886;4.700;2023-04-24T16:15:55;13.40;99.90
8994;DHT22;4532;50.886;4.700;2023-04-24T16:18:25;13.40;99.90
8994;DHT22;4532;50.886;4.700;2023-04-24T16:20:55;13.40;99.90
8994;DHT22;4532;50.886;4.700;2023-04-24T16:23:25;13.40;99.90
8994;DHT22;4532;50.886;4.700;2023-04-24T16:25:57;13.40;99.90
8994;DHT22;4532;50.886;4.700;2023-04-24T16:28:29;13.40;99.90
8994;DHT22;4532;50.886;4.700;2023-04-24T16:30:59;13.40;99.90
8994;DHT22;4532;50.886;4.700;2023-04-24T16:33:26;13.40;99.90
8994;DHT22;4532;50.886;4.700;2023-04-24T16:35:57;13.40;99.90
8994;DHT22;4532;50.886;4.700;2023-04-24T16:38:24;13.40;99.90